createdAt,value
2023-02-02T00:01:57.948Z,4.91
2023-02-02T00:04:29.386Z,5.03
2023-02-02T00:06:58.908Z,5.03
2023-02-02T00:09:29.459Z,5.02
2023-02-02T00:11:56.008Z,4.95
2023-02-02T00:14:22.897Z,4.97
2023-02-02T00:16:50.273Z,4.96
2023-02-02T00:19:21.514Z,4.97
2023-02-02T00:21:48.032Z,4.97
2023-02-02T00:24:15.751Z,4.96
2023-02-02T00:26:42.754Z,5.03
2023-02-02T00:29:14.305Z,4.95
2023-02-02T00:31:40.695Z,4.92
2023-02-02T00:34:07.071Z,4.94
2023-02-02T00:36:33.500Z,4.99
2023-02-02T00:38:59.844Z,4.97
2023-02-02T00:41:26.209Z,4.99
2023-02-02T00:44:11.414Z,4.98
2023-02-02T00:46:40.989Z,4.93
2023-02-02T00:49:07.727Z,4.93
2023-02-02T00:51:34.505Z,4.96
2023-02-02T00:54:00.867Z,4.93
2023-02-02T00:56:27.298Z,4.89
2023-02-02T00:58:53.893Z,4.90
2023-02-02T01:01:23.723Z,4.88
2023-02-02T01:03:50.298Z,4.84
2023-02-02T01:06:17.352Z,4.79
2023-02-02T01:08:43.685Z,4.78
2023-02-02T01:11:10.139Z,4.75
2023-02-02T01:13:37.377Z,4.69
2023-02-02T01:16:04.211Z,4.70
2023-02-02T01:18:30.823Z,4.70
2023-02-02T01:21:01.675Z,4.75
2023-02-02T01:23:28.209Z,4.78
2023-02-02T01:25:55.645Z,4.80
2023-02-02T01:28:22.594Z,4.80
2023-02-02T01:30:49.359Z,4.83
2023-02-02T01:33:18.970Z,4.85
2023-02-02T01:35:49.945Z,4.84
2023-02-02T01:38:16.371Z,4.81
2023-02-02T01:40:54.141Z,4.85
2023-02-02T01:43:23.324Z,4.81
2023-02-02T01:45:51.066Z,4.80
2023-02-02T01:48:19.479Z,4.74
2023-02-02T01:50:45.820Z,4.71
2023-02-02T01:53:12.227Z,4.68
2023-02-02T01:55:39.733Z,4.68
2023-02-02T01:58:11.700Z,4.69
2023-02-02T02:00:38.858Z,4.64
2023-02-02T02:03:08.918Z,4.62
2023-02-02T02:05:37.032Z,4.65
2023-02-02T02:08:16.910Z,4.63
2023-02-02T02:10:43.261Z,4.58
2023-02-02T02:13:09.662Z,4.54
2023-02-02T02:16:17.304Z,4.56
2023-02-02T02:18:50.532Z,4.63
2023-02-02T02:22:00.167Z,4.61
2023-02-02T02:25:03.931Z,4.58
2023-02-02T02:27:39.321Z,4.62
2023-02-02T02:30:23.165Z,4.60
2023-02-02T02:32:55.749Z,4.72
2023-02-02T02:35:41.970Z,4.69
2023-02-02T02:38:11.356Z,4.74
2023-02-02T02:40:42.941Z,4.69
2023-02-02T02:43:19.030Z,4.73
2023-02-02T02:45:45.391Z,4.71
2023-02-02T02:48:11.980Z,4.75
2023-02-02T02:50:38.659Z,4.73
2023-02-02T02:53:06.370Z,4.73
2023-02-02T02:55:51.598Z,4.71
2023-02-02T02:58:41.464Z,4.66
2023-02-02T03:01:12.084Z,4.57
2023-02-02T03:04:07.401Z,4.60
2023-02-02T03:06:46.908Z,4.65
2023-02-02T03:09:15.694Z,4.62
2023-02-02T03:11:42.032Z,4.62
2023-02-02T03:14:09.706Z,4.59
2023-02-02T03:16:37.398Z,4.57
2023-02-02T03:19:04.527Z,4.53
2023-02-02T03:21:31.941Z,4.49
2023-02-02T03:23:58.323Z,4.46
2023-02-02T03:26:25.066Z,4.49
2023-02-02T03:28:51.668Z,4.47
2023-02-02T03:31:18.329Z,4.52
2023-02-02T03:33:44.702Z,4.50
2023-02-02T03:36:11.237Z,4.45
2023-02-02T03:38:37.583Z,4.40
2023-02-02T03:41:05.507Z,4.39
2023-02-02T03:43:31.867Z,4.37
2023-02-02T03:46:00.960Z,4.43
2023-02-02T03:48:27.721Z,4.47
2023-02-02T03:50:54.160Z,4.49
2023-02-02T03:53:20.614Z,4.49
2023-02-02T03:55:46.981Z,4.51
2023-02-02T03:58:13.397Z,4.50
2023-02-02T04:00:39.733Z,4.47
2023-02-02T04:03:06.455Z,4.46
2023-02-02T04:05:32.937Z,4.47
2023-02-02T04:07:59.563Z,4.42
2023-02-02T04:10:25.994Z,4.43
2023-02-02T04:12:55.314Z,4.42
2023-02-02T04:15:21.656Z,4.40
2023-02-02T04:17:48.079Z,4.44
2023-02-02T04:20:14.729Z,4.46
2023-02-02T04:22:41.075Z,4.43
2023-02-02T04:25:07.781Z,4.37
2023-02-02T04:27:34.240Z,4.37
2023-02-02T04:30:00.919Z,4.36
2023-02-02T04:32:27.300Z,4.38
2023-02-02T04:34:53.701Z,4.39
2023-02-02T04:37:20.040Z,4.39
2023-02-02T04:39:46.614Z,4.37
2023-02-02T04:42:12.968Z,4.38
2023-02-02T04:44:40.040Z,4.39
2023-02-02T04:47:06.417Z,4.39
2023-02-02T04:49:32.779Z,4.42
2023-02-02T04:51:59.155Z,4.45
2023-02-02T04:54:25.537Z,4.45
2023-02-02T04:56:52.112Z,4.43
2023-02-02T04:59:18.451Z,4.46
2023-02-02T05:01:45.102Z,4.45
2023-02-02T05:04:11.799Z,4.45
2023-02-02T05:06:38.398Z,4.50
2023-02-02T05:09:04.775Z,4.49
2023-02-02T05:11:31.337Z,4.48
2023-02-02T05:13:57.752Z,4.47
2023-02-02T05:16:24.362Z,4.49
2023-02-02T05:18:52.030Z,4.50
2023-02-02T05:21:19.211Z,4.47
2023-02-02T05:23:45.871Z,4.43
2023-02-02T05:26:15.303Z,4.44
2023-02-02T05:28:42.859Z,4.45
2023-02-02T05:31:09.760Z,4.45
2023-02-02T05:33:36.257Z,4.48
2023-02-02T05:36:02.786Z,4.48
2023-02-02T05:38:29.184Z,4.50
2023-02-02T05:40:55.620Z,4.51
2023-02-02T05:43:24.950Z,4.52
2023-02-02T05:45:51.310Z,4.53
2023-02-02T05:48:17.959Z,4.55
2023-02-02T05:50:44.602Z,4.51
2023-02-02T05:53:11.046Z,4.49
2023-02-02T05:55:37.396Z,4.53
2023-02-02T05:58:03.754Z,4.50
2023-02-02T06:00:30.321Z,4.48
2023-02-02T06:02:56.701Z,4.46
2023-02-02T06:05:23.469Z,4.48
2023-02-02T06:07:50.043Z,4.48
2023-02-02T06:10:16.682Z,4.51
2023-02-02T06:12:44.089Z,4.50
2023-02-02T06:15:10.884Z,4.49
2023-02-02T06:17:37.241Z,4.50
2023-02-02T06:20:04.353Z,4.48
2023-02-02T06:22:32.260Z,4.47
2023-02-02T06:24:58.872Z,4.49
2023-02-02T06:27:25.312Z,4.50
2023-02-02T06:29:51.684Z,4.48
2023-02-02T06:32:18.060Z,4.44
2023-02-02T06:34:44.452Z,4.49
2023-02-02T06:37:10.905Z,4.53
2023-02-02T06:39:37.265Z,4.51
2023-02-02T06:42:19.353Z,4.52
2023-02-02T06:44:47.449Z,4.47
2023-02-02T06:47:13.820Z,4.51
2023-02-02T06:49:40.253Z,4.48
2023-02-02T06:52:07.498Z,4.45
2023-02-02T06:54:33.862Z,4.48
2023-02-02T06:57:00.441Z,4.46
2023-02-02T06:59:26.827Z,4.46
2023-02-02T07:01:53.461Z,4.46
2023-02-02T07:04:20.000Z,4.45
2023-02-02T07:06:46.441Z,4.49
2023-02-02T07:09:13.039Z,4.50
2023-02-02T07:11:39.818Z,4.49
2023-02-02T07:14:09.796Z,4.48
2023-02-02T07:16:36.195Z,4.46
2023-02-02T07:19:02.583Z,4.48
2023-02-02T07:21:35.221Z,4.45
2023-02-02T07:24:02.848Z,4.49
2023-02-02T07:26:29.398Z,4.47
2023-02-02T07:28:56.106Z,4.50
2023-02-02T07:31:24.334Z,4.52
2023-02-02T07:33:50.849Z,4.56
2023-02-02T07:36:18.823Z,4.61
2023-02-02T07:38:46.067Z,4.59
2023-02-02T07:41:12.754Z,4.64
2023-02-02T07:43:39.300Z,4.69
2023-02-02T07:46:08.135Z,4.71
2023-02-02T07:48:34.679Z,4.73
2023-02-02T07:51:02.003Z,4.78
2023-02-02T07:53:28.462Z,4.79
2023-02-02T07:56:07.535Z,4.81
2023-02-02T07:58:33.880Z,4.81
2023-02-02T08:01:02.392Z,4.85
2023-02-02T08:03:28.839Z,4.88
2023-02-02T08:05:55.593Z,4.89
2023-02-02T08:08:21.976Z,4.92
2023-02-02T08:10:49.461Z,4.94
2023-02-02T08:13:15.891Z,4.96
2023-02-02T08:15:42.269Z,4.99
2023-02-02T08:18:08.633Z,5.05
2023-02-02T08:20:35.216Z,5.06
2023-02-02T08:23:01.602Z,5.06
2023-02-02T08:25:28.351Z,5.07
2023-02-02T08:27:55.602Z,5.10
2023-02-02T08:30:21.989Z,5.11
2023-02-02T08:32:48.376Z,5.13
2023-02-02T08:35:14.729Z,5.16
2023-02-02T08:37:41.345Z,5.15
2023-02-02T08:40:08.736Z,5.17
2023-02-02T08:42:35.466Z,5.20
2023-02-02T08:46:03.134Z,5.20
2023-02-02T08:47:50.411Z,5.23
2023-02-02T08:50:22.585Z,5.23
2023-02-02T08:52:49.129Z,5.26
2023-02-02T08:55:15.971Z,5.28
2023-02-02T08:57:42.490Z,5.28
2023-02-02T09:00:09.475Z,5.32
2023-02-02T09:02:35.979Z,5.36
2023-02-02T09:05:02.436Z,5.39
2023-02-02T09:07:28.857Z,5.42
2023-02-02T09:09:58.095Z,5.44
2023-02-02T09:12:25.329Z,5.45
2023-02-02T09:14:52.068Z,5.46
2023-02-02T09:17:18.489Z,5.50
2023-02-02T09:19:45.009Z,5.52
2023-02-02T09:22:11.415Z,5.55
2023-02-02T09:24:38.002Z,5.58
2023-02-02T09:27:04.483Z,5.62
2023-02-02T09:29:30.890Z,5.66
2023-02-02T09:31:57.309Z,5.72
2023-02-02T09:34:23.703Z,5.72
2023-02-02T09:36:50.448Z,5.76
2023-02-02T09:39:18.355Z,5.78
2023-02-02T09:42:12.973Z,5.81
2023-02-02T09:45:03.399Z,5.79
2023-02-02T09:47:35.808Z,5.81
2023-02-02T09:50:10.113Z,5.84
2023-02-02T09:52:46.512Z,5.84
2023-02-02T09:55:20.019Z,5.85
2023-02-02T09:57:49.029Z,5.89
2023-02-02T10:00:27.717Z,5.87
2023-02-02T10:02:57.287Z,5.94
2023-02-02T10:05:25.659Z,5.93
2023-02-02T10:07:54.317Z,5.96
2023-02-02T10:10:28.835Z,6.00
2023-02-02T10:13:02.944Z,6.03
2023-02-02T10:16:01.802Z,6.08
2023-02-02T10:18:50.041Z,6.13
2023-02-02T10:21:26.172Z,6.16
2023-02-02T10:23:54.552Z,6.09
2023-02-02T10:26:22.824Z,6.13
2023-02-02T10:29:23.617Z,6.21
2023-02-02T10:32:22.657Z,6.16
2023-02-02T10:35:13.948Z,6.08
2023-02-02T10:38:03.352Z,6.06
2023-02-02T10:40:35.794Z,6.05
2023-02-02T10:43:43.864Z,6.05
2023-02-02T10:46:13.239Z,6.08
2023-02-02T10:48:44.003Z,6.07
2023-02-02T10:51:30.896Z,5.98
2023-02-02T10:53:58.755Z,5.90
2023-02-02T10:56:26.673Z,5.87
2023-02-02T10:59:30.819Z,5.89
2023-02-02T11:01:57.313Z,5.88
2023-02-02T11:04:42.702Z,5.88
2023-02-02T11:07:10.489Z,6.03
2023-02-02T11:09:39.753Z,6.13
2023-02-02T11:12:31.468Z,6.19
2023-02-02T11:15:09.076Z,6.32
2023-02-02T11:17:35.737Z,6.38
2023-02-02T11:20:02.123Z,6.45
2023-02-02T11:22:32.281Z,6.41
2023-02-02T11:25:00.316Z,6.40
2023-02-02T11:27:28.490Z,6.39
2023-02-02T11:29:56.402Z,6.42
2023-02-02T11:32:29.519Z,6.43
2023-02-02T11:35:25.891Z,6.45
2023-02-02T11:38:08.817Z,6.50
2023-02-02T11:40:45.430Z,6.54
2023-02-02T11:43:19.227Z,6.59
2023-02-02T11:45:49.286Z,6.60
2023-02-02T11:48:16.662Z,6.66
2023-02-02T11:50:53.337Z,6.67
2023-02-02T11:53:28.872Z,6.71
2023-02-02T11:55:55.903Z,6.75
2023-02-02T11:58:27.613Z,6.79
2023-02-02T12:00:55.177Z,6.76
2023-02-02T12:03:29.383Z,6.72
2023-02-02T12:05:55.822Z,6.72
2023-02-02T12:08:22.336Z,6.72
2023-02-02T12:10:54.940Z,6.78
2023-02-02T12:13:34.663Z,6.78
2023-02-02T12:16:08.672Z,6.78
2023-02-02T12:18:47.512Z,6.83
2023-02-02T12:21:38.412Z,6.90
2023-02-02T12:24:20.022Z,7.02
2023-02-02T12:26:50.559Z,7.15
2023-02-02T12:29:29.280Z,7.16
2023-02-02T12:32:01.642Z,7.17
2023-02-02T12:34:46.868Z,7.13
2023-02-02T12:37:25.610Z,7.22
2023-02-02T12:40:13.480Z,7.32
2023-02-02T12:42:55.164Z,7.41
2023-02-02T12:45:27.566Z,7.43
2023-02-02T12:48:10.972Z,7.51
2023-02-02T12:51:08.762Z,7.51
2023-02-02T12:53:46.877Z,7.43
2023-02-02T12:56:36.241Z,7.37
2023-02-02T12:59:24.829Z,7.21
2023-02-02T13:01:51.298Z,7.26
2023-02-02T13:04:41.980Z,7.36
2023-02-02T13:07:17.590Z,7.45
2023-02-02T13:10:17.428Z,7.50
2023-02-02T13:12:53.242Z,7.60
2023-02-02T13:15:23.910Z,7.50
2023-02-02T13:17:54.977Z,7.49
2023-02-02T13:20:37.288Z,7.63
2023-02-02T13:23:27.625Z,7.77
2023-02-02T13:25:58.162Z,7.69
2023-02-02T13:28:32.106Z,7.77
2023-02-02T13:30:59.509Z,7.72
2023-02-02T13:33:30.961Z,7.66
2023-02-02T13:36:15.845Z,7.76
2023-02-02T13:38:42.539Z,7.86
2023-02-02T13:41:10.233Z,7.77
2023-02-02T13:43:39.912Z,7.75
2023-02-02T13:46:06.400Z,7.81
2023-02-02T13:48:43.942Z,7.74
2023-02-02T13:51:35.311Z,7.66
2023-02-02T13:54:39.359Z,7.65
2023-02-02T13:57:24.465Z,7.53
2023-02-02T13:59:54.409Z,7.48
2023-02-02T14:02:35.476Z,7.43
2023-02-02T14:05:03.311Z,7.42
2023-02-02T14:07:45.372Z,7.32
2023-02-02T14:10:25.895Z,7.29
2023-02-02T14:12:52.428Z,7.38
2023-02-02T14:15:18.811Z,7.38
2023-02-02T14:17:47.165Z,7.40
2023-02-02T14:20:39.401Z,7.41
2023-02-02T14:24:02.955Z,7.39
2023-02-02T14:26:46.225Z,7.40
2023-02-02T14:29:39.253Z,7.37
2023-02-02T14:32:24.572Z,7.32
2023-02-02T14:34:51.902Z,7.33
2023-02-02T14:37:24.329Z,7.34
2023-02-02T14:40:09.248Z,7.34
2023-02-02T14:43:00.400Z,7.24
2023-02-02T14:45:28.499Z,7.22
2023-02-02T14:47:59.556Z,7.20
2023-02-02T14:50:39.114Z,7.11
2023-02-02T14:53:25.721Z,7.09
2023-02-02T14:56:09.164Z,7.03
2023-02-02T14:58:51.161Z,7.00
2023-02-02T15:01:17.594Z,6.94
2023-02-02T15:03:45.757Z,6.86
2023-02-02T15:06:32.838Z,6.68
2023-02-02T15:09:26.464Z,6.46
2023-02-02T15:12:00.866Z,6.31
2023-02-02T15:14:33.720Z,6.16
2023-02-02T15:17:08.376Z,6.11
2023-02-02T15:19:38.028Z,6.06
2023-02-02T15:22:27.427Z,5.99
2023-02-02T15:24:53.856Z,5.99
2023-02-02T15:27:20.244Z,6.00
2023-02-02T15:29:48.281Z,5.99
2023-02-02T15:32:20.283Z,5.95
2023-02-02T15:35:07.937Z,5.93
2023-02-02T15:37:41.699Z,5.89
2023-02-02T15:40:15.956Z,5.89
2023-02-02T15:42:52.883Z,5.89
2023-02-02T15:45:28.387Z,5.88
2023-02-02T15:47:55.705Z,5.87
2023-02-02T15:50:22.059Z,5.84
2023-02-02T15:52:50.433Z,5.81
2023-02-02T15:55:25.530Z,5.84
2023-02-02T15:57:54.342Z,5.83
2023-02-02T16:00:32.073Z,5.80
2023-02-02T16:03:18.773Z,5.80
2023-02-02T16:05:47.268Z,5.75
2023-02-02T16:08:19.007Z,5.71
2023-02-02T16:10:48.062Z,5.66
2023-02-02T16:13:33.295Z,5.62
2023-02-02T16:16:01.606Z,5.55
2023-02-02T16:18:28.483Z,5.47
2023-02-02T16:20:54.929Z,5.38
2023-02-02T16:23:32.081Z,5.33
2023-02-02T16:25:59.584Z,5.28
2023-02-02T16:28:25.981Z,5.21
2023-02-02T16:30:52.543Z,5.11
2023-02-02T16:33:34.209Z,5.01
2023-02-02T16:36:00.804Z,4.94
2023-02-02T16:38:31.370Z,4.89
2023-02-02T16:41:10.797Z,4.87
2023-02-02T16:43:38.800Z,4.80
2023-02-02T16:46:12.893Z,4.78
2023-02-02T16:48:41.181Z,4.76
2023-02-02T16:51:08.956Z,4.76
2023-02-02T16:53:35.910Z,4.84
2023-02-02T16:56:03.898Z,4.95
2023-02-02T16:58:30.276Z,5.04
2023-02-02T17:01:16.014Z,5.08
2023-02-02T17:03:51.415Z,5.13
2023-02-02T17:06:25.152Z,5.15
2023-02-02T17:08:51.504Z,5.11
2023-02-02T17:11:27.645Z,5.12
2023-02-02T17:13:54.365Z,5.12
2023-02-02T17:16:22.334Z,5.10
2023-02-02T17:18:49.058Z,5.12
2023-02-02T17:21:17.706Z,5.13
2023-02-02T17:23:44.237Z,5.16
2023-02-02T17:26:11.426Z,5.16
2023-02-02T17:28:39.195Z,5.16
2023-02-02T17:31:12.030Z,5.12
2023-02-02T17:33:38.625Z,5.14
2023-02-02T17:36:05.333Z,5.14
2023-02-02T17:38:32.484Z,5.10
2023-02-02T17:41:01.632Z,5.10
2023-02-02T17:43:29.409Z,5.10
2023-02-02T17:45:55.813Z,5.10
2023-02-02T17:48:22.319Z,5.12
2023-02-02T17:50:48.795Z,5.12
2023-02-02T17:53:20.361Z,5.10
2023-02-02T17:55:47.417Z,5.14
2023-02-02T17:58:16.917Z,5.11
2023-02-02T18:00:54.163Z,5.13
2023-02-02T18:03:34.376Z,5.10
2023-02-02T18:06:01.947Z,5.09
2023-02-02T18:08:28.867Z,5.08
2023-02-02T18:10:55.228Z,5.09
2023-02-02T18:13:22.375Z,5.12
2023-02-02T18:15:49.449Z,5.10
2023-02-02T18:18:15.859Z,5.10
2023-02-02T18:20:46.745Z,5.10
2023-02-02T18:23:13.318Z,5.09
2023-02-02T18:25:39.868Z,5.05
2023-02-02T18:28:07.187Z,5.07
2023-02-02T18:30:33.661Z,5.08
2023-02-02T18:33:00.387Z,5.08
2023-02-02T18:35:28.211Z,5.06
2023-02-02T18:37:54.680Z,5.08
2023-02-02T18:40:21.063Z,5.05
2023-02-02T18:42:47.671Z,5.03
2023-02-02T18:45:14.432Z,5.05
2023-02-02T18:47:41.580Z,5.05
2023-02-02T18:50:08.965Z,5.04
2023-02-02T18:52:35.338Z,5.03
2023-02-02T18:55:01.734Z,5.00
2023-02-02T18:57:31.365Z,5.01
2023-02-02T18:59:57.750Z,4.98
2023-02-02T19:02:25.432Z,4.94
2023-02-02T19:05:10.677Z,4.91
2023-02-02T19:07:55.037Z,4.88
2023-02-02T19:10:22.157Z,4.85
2023-02-02T19:12:55.146Z,4.83
2023-02-02T19:15:21.882Z,4.80
2023-02-02T19:17:50.567Z,4.74
2023-02-02T19:20:23.136Z,4.72
2023-02-02T19:22:49.614Z,4.65
2023-02-02T19:25:16.192Z,4.64
2023-02-02T19:27:42.591Z,4.63
2023-02-02T19:30:16.931Z,4.61
2023-02-02T19:32:43.551Z,4.63
2023-02-02T19:35:19.390Z,4.58
2023-02-02T19:37:47.283Z,4.60
2023-02-02T19:40:21.820Z,4.59
2023-02-02T19:43:14.598Z,4.56
2023-02-02T19:45:41.018Z,4.53
2023-02-02T19:48:18.025Z,4.51
2023-02-02T19:50:44.783Z,4.52
2023-02-02T19:53:43.685Z,4.52
2023-02-02T19:56:23.508Z,4.50
2023-02-02T19:58:50.150Z,4.46
2023-02-02T20:01:19.924Z,4.40
2023-02-02T20:03:46.683Z,4.36
2023-02-02T20:06:23.881Z,4.35
2023-02-02T20:08:50.283Z,4.37
2023-02-02T20:11:42.105Z,4.33
2023-02-02T20:14:18.700Z,4.33
2023-02-02T20:16:59.699Z,4.34
2023-02-02T20:19:36.854Z,4.29
2023-02-02T20:22:03.367Z,4.29
2023-02-02T20:24:40.288Z,4.29
2023-02-02T20:27:22.824Z,4.28
2023-02-02T20:29:50.158Z,4.23
2023-02-02T20:32:20.996Z,4.23
2023-02-02T20:34:47.887Z,4.21
2023-02-02T20:37:29.033Z,4.18
2023-02-02T20:39:57.763Z,4.15
2023-02-02T20:42:24.338Z,4.09
2023-02-02T20:44:50.793Z,4.03
2023-02-02T20:47:17.485Z,3.99
2023-02-02T20:49:44.104Z,4.02
2023-02-02T20:52:12.858Z,3.99
2023-02-02T20:54:39.406Z,4.02
2023-02-02T20:57:06.011Z,4.01
2023-02-02T20:59:32.382Z,4.05
2023-02-02T21:01:58.950Z,3.94
2023-02-02T21:04:25.299Z,3.91
2023-02-02T21:06:51.735Z,3.96
2023-02-02T21:09:18.146Z,3.94
2023-02-02T21:11:44.518Z,3.95
2023-02-02T21:14:10.968Z,3.97
2023-02-02T21:16:37.368Z,3.96
2023-02-02T21:19:03.764Z,3.99
2023-02-02T21:21:30.182Z,4.04
2023-02-02T21:23:56.670Z,4.05
2023-02-02T21:26:23.594Z,4.08
2023-02-02T21:28:49.993Z,4.03
2023-02-02T21:31:17.040Z,4.00
2023-02-02T21:33:44.439Z,4.03
2023-02-02T21:36:34.512Z,4.02
2023-02-02T21:39:36.133Z,3.96
2023-02-02T21:42:12.178Z,3.93
2023-02-02T21:44:40.214Z,3.90
2023-02-02T21:47:33.961Z,3.84
2023-02-02T21:50:21.632Z,3.88
2023-02-02T21:52:48.286Z,3.88
2023-02-02T21:55:32.069Z,3.93
2023-02-02T21:57:58.607Z,3.87
2023-02-02T22:00:30.883Z,3.87
2023-02-02T22:02:59.030Z,3.89
2023-02-02T22:05:36.119Z,3.85
2023-02-02T22:08:18.366Z,3.84
2023-02-02T22:10:44.956Z,3.85
2023-02-02T22:13:17.590Z,3.85
2023-02-02T22:15:48.250Z,3.80
2023-02-02T22:18:18.416Z,3.79
2023-02-02T22:20:47.099Z,3.85
2023-02-02T22:23:18.156Z,3.81
2023-02-02T22:25:45.203Z,3.74
2023-02-02T22:28:17.051Z,3.81
2023-02-02T22:30:43.700Z,3.82
2023-02-02T22:33:10.993Z,3.90
2023-02-02T22:35:37.589Z,3.91
2023-02-02T22:38:04.160Z,3.88
2023-02-02T22:40:30.667Z,3.92
2023-02-02T22:42:58.530Z,3.95
2023-02-02T22:45:25.208Z,3.94
2023-02-02T22:47:51.604Z,3.93
2023-02-02T22:50:25.961Z,3.96
2023-02-02T22:52:52.650Z,3.96
2023-02-02T22:55:19.557Z,3.98
2023-02-02T22:57:46.012Z,3.99
2023-02-02T23:00:26.893Z,4.01
2023-02-02T23:02:53.892Z,3.98
2023-02-02T23:05:20.663Z,4.01
2023-02-02T23:07:47.456Z,4.06
2023-02-02T23:10:15.504Z,4.10
2023-02-02T23:12:42.262Z,4.09
2023-02-02T23:15:09.492Z,4.10
2023-02-02T23:17:35.842Z,4.13
2023-02-02T23:20:03.972Z,4.12
2023-02-02T23:22:30.679Z,4.18
2023-02-02T23:24:57.644Z,4.28
2023-02-02T23:27:24.250Z,4.33
2023-02-02T23:29:50.589Z,4.37
2023-02-02T23:32:17.197Z,4.40
2023-02-02T23:34:43.533Z,4.44
2023-02-02T23:37:09.874Z,4.42
2023-02-02T23:39:36.229Z,4.45
2023-02-02T23:42:02.574Z,4.45
2023-02-02T23:44:29.010Z,4.46
2023-02-02T23:46:55.452Z,4.51
2023-02-02T23:49:21.866Z,4.52
2023-02-02T23:51:48.496Z,4.56
2023-02-02T23:54:14.834Z,4.58
2023-02-02T23:56:41.220Z,4.58
2023-02-02T23:59:08.075Z,4.61
